Time;durP1;ratioP1;P1;durP2;ratioP2;P2;SDS_P1;SDS_P2;PMS_P1;PMS_P2;Temp;Humidity;BMP_temperature;BMP_pressure;BME280_temperature;BME280_humidity;BME280_pressure;Samples;Min_cycle;Max_cycle;Signal;HPM_P1;HPM_P2
2023/06/28 00:02:01;;;;;;;1.17;1.03;;;;;;;16.43;69.91;99482.69;4994504;28;20038;-63
2023/06/28 00:04:30;;;;;;;0.53;0.53;;;;;;;16.41;69.94;99489.63;4994508;28;20300;-62
2023/06/28 00:07:00;;;;;;;0.73;0.68;;;;;;;16.43;70.24;99498.13;4994801;28;20440;-62
2023/06/28 00:09:31;;;;;;;10.43;1.40;;;;;;;16.41;70.11;99487.84;4994513;28;20050;-62
2023/06/28 00:12:00;;;;;;;1.13;0.98;;;;;;;16.36;70.72;99496.63;4994303;28;20481;-62
2023/06/28 00:14:29;;;;;;;0.40;0.40;;;;;;;16.35;70.76;99494.91;4994471;28;20046;-62
2023/06/28 00:16:59;;;;;;;0.83;0.83;;;;;;;16.40;70.62;99493.06;4995257;28;20038;-62
2023/06/28 00:19:32;;;;;;;0.55;0.55;;;;;;;16.35;70.76;99494.91;4995500;28;20338;-62
2023/06/28 00:22:03;;;;;;;0.65;0.63;;;;;;;16.26;70.92;99492.59;4994367;28;20096;-62
2023/06/28 00:24:32;;;;;;;0.70;0.70;;;;;;;16.21;71.49;99502.16;4994271;28;20138;-62
2023/06/28 00:27:00;;;;;;;0.53;0.53;;;;;;;16.21;71.26;99499.59;5031716;28;20052;-62
2023/06/28 00:29:31;;;;;;;0.60;0.60;;;;;;;16.18;71.91;99499.66;5033680;28;20053;-61
2023/06/28 00:32:01;;;;;;;0.55;0.55;;;;;;;16.23;71.59;99502.97;5033809;28;20140;-62
2023/06/28 00:34:30;;;;;;;1.00;0.90;;;;;;;16.15;71.87;99507.50;5033490;28;20096;-63
2023/06/28 00:36:59;;;;;;;1.35;0.60;;;;;;;15.95;72.29;99506.28;5033466;28;20047;-62
2023/06/28 00:39:31;;;;;;;0.50;0.50;;;;;;;15.81;72.69;99503.19;5033595;28;20053;-62
2023/06/28 00:41:59;;;;;;;0.50;0.50;;;;;;;15.76;73.73;99499.91;5034171;28;20045;-63
2023/06/28 00:44:29;;;;;;;0.80;0.70;;;;;;;15.85;73.21;99504.81;5032161;28;20600;-62
2023/06/28 00:47:00;;;;;;;0.55;0.55;;;;;;;15.94;72.36;99503.72;5033422;28;20045;-62
2023/06/28 00:49:32;;;;;;;0.65;0.65;;;;;;;16.05;71.79;99507.72;5033742;28;20052;-62
2023/06/28 00:52:02;;;;;;;0.75;0.75;;;;;;;15.98;72.07;99510.50;5032166;28;20051;-62
2023/06/28 00:54:35;;;;;;;0.68;0.68;;;;;;;15.85;72.30;99515.09;5033591;28;20037;-62
2023/06/28 00:57:05;;;;;;;0.40;0.40;;;;;;;15.70;72.93;99514.63;5032487;28;20045;-62
2023/06/28 00:59:35;;;;;;;0.40;0.40;;;;;;;15.65;73.21;99517.31;5032160;28;20065;-62
2023/06/28 01:02:05;;;;;;;0.80;0.70;;;;;;;15.55;73.78;99509.84;5032370;28;20041;-62
2023/06/28 01:04:34;;;;;;;1.08;0.98;;;;;;;15.48;73.74;99511.72;5033131;28;20050;-62
2023/06/28 01:07:05;;;;;;;0.55;0.55;;;;;;;15.45;74.24;99514.38;5032093;28;20053;-62
2023/06/28 01:09:37;;;;;;;0.50;0.50;;;;;;;15.40;74.16;99516.16;5033844;28;20045;-62
2023/06/28 01:12:07;;;;;;;0.82;0.82;;;;;;;15.34;74.04;99511.16;5033230;28;20050;-62
2023/06/28 01:14:38;;;;;;;0.50;0.50;;;;;;;15.34;75.07;99524.00;5033110;28;20045;-63
2023/06/28 01:17:07;;;;;;;0.60;0.60;;;;;;;15.33;75.10;99522.34;5033244;28;20410;-62
2023/06/28 01:19:36;;;;;;;0.73;0.60;;;;;;;15.33;74.99;99518.00;5031978;28;20037;-62
2023/06/28 01:22:06;;;;;;;;;;;;;;;15.32;75.09;99523.19;5033814;28;20439;-62
2023/06/28 01:24:38;;;;;;;1.08;0.98;;;;;;;15.16;75.41;99521.84;5033824;28;20015;-62
2023/06/28 01:27:11;;;;;;;0.77;0.77;;;;;;;15.18;75.43;99520.94;5037509;28;20045;-62
2023/06/28 01:29:42;;;;;;;0.60;0.60;;;;;;;15.18;75.77;99520.09;5036870;28;20053;-61
2023/06/28 01:32:11;;;;;;;0.55;0.52;;;;;;;15.20;75.52;99518.31;5036774;28;20042;-62
2023/06/28 01:34:40;;;;;;;0.50;0.50;;;;;;;15.15;75.52;99515.84;5036953;28;20053;-61
2023/06/28 01:37:09;;;;;;;0.50;0.50;;;;;;;15.07;75.65;99511.78;5036680;28;20132;-62
2023/06/28 01:39:40;;;;;;;1.88;1.55;;;;;;;15.10;76.21;99516.84;5035451;28;20347;-63
2023/06/28 01:42:10;;;;;;;0.70;0.70;;;;;;;15.14;75.56;99526.19;5036936;28;20100;-62
2023/06/28 01:44:38;;;;;;;0.98;0.90;;;;;;;15.08;76.18;99518.59;5036462;28;20095;-62
2023/06/28 01:47:08;;;;;;;0.83;0.83;;;;;;;15.06;76.18;99516.06;5036812;28;20438;-62
2023/06/28 01:49:38;;;;;;;0.63;0.63;;;;;;;15.06;76.59;99515.22;5036441;28;20052;-62
2023/06/28 01:52:07;;;;;;;0.57;0.57;;;;;;;14.90;76.71;99519.00;5036710;28;20399;-62
2023/06/28 01:54:36;;;;;;;;;;;;;;;14.87;76.94;99524.19;5036730;28;20049;-62
2023/06/28 01:57:07;;;;;;;0.50;0.50;;;;;;;14.89;77.43;99513.00;5035351;28;20394;-62
2023/06/28 01:59:37;;;;;;;0.63;0.63;;;;;;;14.81;77.39;99511.44;5036614;28;20053;-62
2023/06/28 02:02:06;;;;;;;2.60;1.00;;;;;;;14.77;77.85;99523.53;5035035;28;20037;-62
2023/06/28 02:04:35;;;;;;;0.50;0.50;;;;;;;14.70;77.99;99517.69;5036109;28;20285;-62
2023/06/28 02:07:04;;;;;;;1.50;0.90;;;;;;;14.71;78.04;99527.06;5036022;28;20046;-62
2023/06/28 02:09:33;;;;;;;0.75;0.63;;;;;;;14.67;78.33;99525.44;5034937;28;20069;-62
2023/06/28 02:12:06;;;;;;;0.50;0.50;;;;;;;14.67;78.29;99528.00;5034937;28;20056;-62
2023/06/28 02:14:35;;;;;;;0.70;0.68;;;;;;;14.72;78.02;99525.34;5036339;28;20049;-63
2023/06/28 02:17:05;;;;;;;1.38;0.75;;;;;;;14.70;78.20;99533.09;5034773;28;20041;-62
2023/06/28 02:19:35;;;;;;;0.45;0.45;;;;;;;14.73;77.56;99532.19;5036226;28;20057;-62
2023/06/28 02:22:05;;;;;;;1.95;1.27;;;;;;;14.65;77.43;99524.63;5035855;28;20045;-61
2023/06/28 02:24:35;;;;;;;1.25;1.15;;;;;;;14.62;77.50;99528.97;5035703;28;20131;-62
2023/06/28 02:27:08;;;;;;;3.00;0.57;;;;;;;14.73;77.55;99522.72;5035779;28;20046;-62
2023/06/28 02:29:38;;;;;;;1.15;0.98;;;;;;;14.69;77.00;99531.38;5036054;28;20049;-61
2023/06/28 02:32:07;;;;;;;0.93;0.80;;;;;;;14.58;77.36;99528.19;5035650;28;20042;-62
2023/06/28 02:34:36;;;;;;;0.85;0.85;;;;;;;14.57;77.01;99526.50;5035591;28;20046;-61
2023/06/28 02:37:08;;;;;;;1.17;1.08;;;;;;;14.52;77.13;99517.16;5035356;28;20053;-62
2023/06/28 02:39:39;;;;;;;0.43;0.43;;;;;;;14.51;77.48;99518.91;5034419;28;20129;-62
2023/06/28 02:42:10;;;;;;;0.40;0.40;;;;;;;14.43;76.97;99513.06;5035861;28;20046;-61
2023/06/28 02:44:41;;;;;;;0.63;0.52;;;;;;;14.30;77.64;99521.84;5035378;28;20053;-62
2023/06/28 02:47:11;;;;;;;0.50;0.50;;;;;;;14.23;77.50;99525.38;5035369;28;20499;-62
2023/06/28 02:49:39;;;;;;;0.63;0.63;;;;;;;14.36;78.13;99526.03;5034132;28;20055;-62
2023/06/28 02:52:08;;;;;;;0.70;0.70;;;;;;;14.27;78.00;99521.91;5035276;28;20041;-62
2023/06/28 02:54:38;;;;;;;0.90;0.90;;;;;;;14.20;78.12;99534.88;5034343;28;20037;-62
2023/06/28 02:57:09;;;;;;;1.30;0.93;;;;;;;14.33;78.20;99534.66;5033902;28;20285;-62
2023/06/28 03:00:02;;;;;;;2.72;1.15;;;;;;;14.41;77.68;99530.22;5035222;28;20050;-63
2023/06/28 03:02:32;;;;;;;0.70;0.70;;;;;;;14.56;77.60;99529.94;5034023;28;20237;-62
2023/06/28 03:05:01;;;;;;;1.00;0.73;;;;;;;14.54;77.54;99534.25;5034602;28;20042;-62
2023/06/28 03:07:30;;;;;;;0.55;0.55;;;;;;;14.54;77.36;99526.53;5050333;28;20042;-62
2023/06/28 03:09:58;;;;;;;0.93;0.73;;;;;;;14.57;77.28;99526.50;5034016;28;20446;-62
2023/06/28 03:12:27;;;;;;;0.50;0.50;;;;;;;14.57;77.26;99521.34;5034180;28;20042;-62
2023/06/28 03:14:56;;;;;;;0.43;0.43;;;;;;;14.60;76.54;99526.44;5034825;28;20038;-62
2023/06/28 03:17:28;;;;;;;1.65;0.80;;;;;;;14.49;76.97;99507.81;5035531;28;20133;-62
2023/06/28 03:19:57;;;;;;;0.75;0.75;;;;;;;14.48;77.18;99511.25;5033858;28;20049;-62
2023/06/28 03:22:29;;;;;;;0.60;0.60;;;;;;;14.41;76.89;99514.81;5035066;28;20483;-62
2023/06/28 03:24:58;;;;;;;2.13;0.98;;;;;;;14.32;77.29;99520.13;5033286;28;20041;-62
2023/06/28 03:27:28;;;;;;;0.40;0.40;;;;;;;14.29;77.84;99515.00;5034634;28;20487;-62
2023/06/28 03:29:57;;;;;;;0.60;0.60;;;;;;;14.29;78.16;99515.00;5033741;28;20147;-62
2023/06/28 03:32:28;;;;;;;1.02;0.93;;;;;;;14.34;77.68;99513.25;5034507;28;20282;-62
2023/06/28 03:34:57;;;;;;;0.43;0.43;;;;;;;14.46;77.47;99518.16;5034546;28;20052;-62
2023/06/28 03:37:26;;;;;;;;;;;;;;;14.61;77.49;99517.84;5033947;28;20392;-62
2023/06/28 03:39:55;;;;;;;0.60;0.60;;;;;;;14.68;77.29;99519.41;5034588;28;19928;-62
2023/06/28 03:42:24;;;;;;;;;;;;;;;14.69;76.39;99528.81;5035022;28;20042;-62
2023/06/28 03:44:53;;;;;;;0.57;0.57;;;;;;;14.74;76.58;99534.72;5033063;28;19925;-61
2023/06/28 03:47:22;;;;;;;0.50;0.50;;;;;;;14.66;76.66;99526.31;5032229;28;20038;-61
2023/06/28 03:49:52;;;;;;;0.82;0.82;;;;;;;14.68;77.20;99527.13;5032990;28;20045;-62
2023/06/28 03:52:21;;;;;;;0.90;0.82;;;;;;;14.84;77.25;99524.25;5034194;28;20049;-62
2023/06/28 03:54:49;;;;;;;5.20;1.52;;;;;;;14.96;76.94;99532.56;5033277;28;20041;-62
2023/06/28 03:57:21;;;;;;;1.55;0.85;;;;;;;15.03;77.17;99528.13;5032981;28;20435;-62
2023/06/28 03:59:50;;;;;;;0.52;0.52;;;;;;;15.06;76.85;99528.06;5034757;28;20523;-62
2023/06/28 04:02:19;;;;;;;0.70;0.70;;;;;;;14.84;76.49;99519.09;5033949;28;20042;-62
2023/06/28 04:04:49;;;;;;;0.50;0.50;;;;;;;14.69;77.09;99521.09;5034354;28;20041;-62
2023/06/28 04:07:24;;;;;;;0.52;0.52;;;;;;;14.80;77.09;99532.91;5033877;28;20050;-62
2023/06/28 04:09:54;;;;;;;0.93;0.88;;;;;;;14.83;76.94;99532.84;5034112;28;20100;-62
2023/06/28 04:12:23;;;;;;;0.43;0.43;;;;;;;14.90;76.83;99536.97;5033850;28;20063;-61
2023/06/28 04:14:52;;;;;;;1.73;1.15;;;;;;;14.92;76.04;99535.22;5033868;28;20073;-61
2023/06/28 04:17:22;;;;;;;2.10;1.70;;;;;;;14.90;76.45;99539.56;5034685;28;20453;-62
2023/06/28 04:19:51;;;;;;;0.38;0.38;;;;;;;14.99;76.34;99535.06;5033998;28;20053;-62
2023/06/28 04:22:21;;;;;;;0.63;0.63;;;;;;;15.19;76.00;99537.19;5033726;28;20412;-62
2023/06/28 04:24:49;;;;;;;0.68;0.68;;;;;;;15.31;75.30;99540.34;5033449;28;20065;-62
2023/06/28 04:27:18;;;;;;;1.42;0.65;;;;;;;15.53;74.72;99548.47;5033940;28;20058;-62
2023/06/28 04:29:47;;;;;;;1.58;0.90;;;;;;;15.70;74.57;99551.50;5033583;28;20040;-62
2023/06/28 04:32:23;;;;;;;2.72;1.05;;;;;;;15.83;73.76;99550.34;5033521;28;20056;-62
2023/06/28 04:34:53;;;;;;;0.57;0.57;;;;;;;15.93;73.51;99551.78;5033597;28;20049;-62
2023/06/28 04:37:27;;;;;;;0.77;0.77;;;;;;;15.82;73.47;99551.19;5033536;28;20049;-61
2023/06/28 04:39:56;;;;;;;0.50;0.50;;;;;;;15.62;74.02;99553.38;5034094;28;20069;-62
2023/06/28 04:42:25;;;;;;;0.88;0.88;;;;;;;15.64;74.74;99561.94;5033516;28;20049;-62
2023/06/28 04:44:59;;;;;;;1.45;0.90;;;;;;;15.70;75.17;99554.06;5033437;28;20053;-62
2023/06/28 04:47:29;;;;;;;0.63;0.63;;;;;;;15.76;75.66;99555.66;5033463;28;20038;-62
2023/06/28 04:49:58;;;;;;;0.57;0.57;;;;;;;15.86;75.61;99547.66;5033890;28;20556;-62
2023/06/28 04:52:29;;;;;;;0.80;0.77;;;;;;;16.00;74.76;99555.06;5033605;28;20038;-62
2023/06/28 04:54:57;;;;;;;0.60;0.60;;;;;;;16.14;73.58;99554.72;5033740;28;20052;-63
2023/06/28 04:57:28;;;;;;;0.47;0.47;;;;;;;16.31;73.30;99561.13;5033750;28;20064;-62
2023/06/28 04:59:57;;;;;;;0.50;0.50;;;;;;;16.45;73.05;99559.03;5036588;28;20049;-62
2023/06/28 05:02:26;;;;;;;0.70;0.70;;;;;;;16.58;72.86;99551.88;5037265;28;20072;-63
2023/06/28 05:04:55;;;;;;;0.87;0.87;;;;;;;16.54;72.97;99560.56;5037351;28;20045;-62
2023/06/28 05:07:23;;;;;;;1.13;1.02;;;;;;;16.43;73.33;99565.13;5037253;28;20423;-62
2023/06/28 05:09:54;;;;;;;0.68;0.60;;;;;;;16.51;73.14;99560.59;5036074;28;20125;-62
2023/06/28 05:12:23;;;;;;;0.45;0.45;;;;;;;16.47;73.25;99561.56;5037487;28;20119;-62
2023/06/28 05:14:51;;;;;;;1.02;0.65;;;;;;;16.52;73.70;99570.06;5037172;28;20049;-62
2023/06/28 05:17:20;;;;;;;0.63;0.63;;;;;;;16.56;73.17;99566.50;5037377;28;20104;-62
2023/06/28 05:19:49;;;;;;;0.70;0.70;;;;;;;16.53;72.84;99571.75;5037098;28;20065;-62
2023/06/28 05:22:21;;;;;;;0.80;0.80;;;;;;;16.52;72.25;99573.50;5036932;28;20132;-62
2023/06/28 05:24:51;;;;;;;1.10;1.00;;;;;;;16.63;72.42;99579.19;5037006;28;20056;-62
2023/06/28 05:27:21;;;;;;;0.60;0.60;;;;;;;16.67;71.88;99575.66;5036882;28;20046;-63
2023/06/28 05:29:50;;;;;;;0.47;0.47;;;;;;;16.76;71.52;99574.56;5036907;28;20045;-63
2023/06/28 05:32:19;;;;;;;0.60;0.60;;;;;;;16.83;71.16;99576.06;5036809;28;20048;-62
2023/06/28 05:34:48;;;;;;;0.65;0.65;;;;;;;16.99;71.05;99577.31;5036754;28;20046;-62
2023/06/28 05:37:17;;;;;;;0.50;0.50;;;;;;;17.07;70.67;99577.97;5036709;28;20041;-62
2023/06/28 05:39:46;;;;;;;0.65;0.65;;;;;;;17.19;70.69;99579.34;5036705;28;20045;-62
2023/06/28 05:42:15;;;;;;;0.30;0.30;;;;;;;17.34;70.36;99579.75;5037254;28;20407;-62
2023/06/28 05:44:45;;;;;;;0.40;0.40;;;;;;;17.55;69.42;99582.59;5036851;28;20053;-62
2023/06/28 05:47:14;;;;;;;0.60;0.60;;;;;;;17.69;68.50;99575.25;5043725;28;20326;-62
2023/06/28 05:49:43;;;;;;;1.05;0.80;;;;;;;17.79;67.71;99581.84;5055136;28;20094;-63
2023/06/28 05:52:12;;;;;;;0.50;0.50;;;;;;;17.91;66.80;99582.28;5056593;28;20112;-63
2023/06/28 05:54:40;;;;;;;0.60;0.60;;;;;;;17.94;66.00;99581.34;5048831;28;20068;-62
2023/06/28 05:57:09;;;;;;;0.40;0.40;;;;;;;18.08;65.21;99584.34;5056633;28;20110;-62
2023/06/28 05:59:38;;;;;;;0.50;0.50;;;;;;;18.20;64.73;99591.69;5056521;28;20037;-62
2023/06/28 06:02:08;;;;;;;0.40;0.40;;;;;;;18.29;64.15;99593.94;5056216;28;20067;-62
2023/06/28 06:04:37;;;;;;;0.50;0.50;;;;;;;18.34;64.48;99591.22;5051051;28;20055;-63
2023/06/28 06:07:06;;;;;;;0.43;0.43;;;;;;;18.29;63.82;99599.13;5053023;28;20048;-62
2023/06/28 06:09:35;;;;;;;0.50;0.50;;;;;;;18.37;62.39;99589.38;5055650;28;20047;-62
2023/06/28 06:12:05;;;;;;;0.40;0.40;;;;;;;18.44;61.23;99585.69;5055329;28;20052;-62
2023/06/28 06:14:34;;;;;;;0.57;0.57;;;;;;;18.49;60.44;99586.41;5055995;28;20450;-62
2023/06/28 06:17:03;;;;;;;2.80;2.10;;;;;;;18.56;60.50;99593.06;5047076;28;20407;-63
2023/06/28 06:19:34;;;;;;;0.40;0.40;;;;;;;18.60;61.28;99594.63;5036222;28;20132;-62
2023/06/28 06:22:03;;;;;;;0.60;0.60;;;;;;;18.72;61.36;99598.53;5035854;28;20049;-63
2023/06/28 06:24:32;;;;;;;0.40;0.40;;;;;;;18.90;61.24;99597.03;5036019;28;20408;-62
2023/06/28 06:27:01;;;;;;;7.28;0.70;;;;;;;19.16;60.16;99589.19;5039105;28;20049;-62
2023/06/28 06:29:29;;;;;;;1.05;0.95;;;;;;;19.26;59.53;99595.69;5055651;28;20048;-62
2023/06/28 06:31:58;;;;;;;0.50;0.50;;;;;;;19.24;58.84;99598.31;5055862;28;20475;-62
2023/06/28 06:34:27;;;;;;;0.50;0.50;;;;;;;19.20;57.83;99601.09;5044786;28;20033;-63
2023/06/28 06:36:58;;;;;;;0.95;0.88;;;;;;;19.21;57.60;99597.63;5044166;28;20041;-62
2023/06/28 06:39:27;;;;;;;0.57;0.57;;;;;;;19.27;58.37;99597.38;5055455;28;20052;-63
2023/06/28 06:41:55;;;;;;;0.37;0.37;;;;;;;19.33;58.47;99591.97;5053256;28;20037;-63
2023/06/28 06:44:25;;;;;;;0.52;0.52;;;;;;;19.28;58.00;99583.53;5055993;28;20136;-63
2023/06/28 06:46:54;;;;;;;0.50;0.50;;;;;;;19.32;58.35;99591.13;5055862;28;20041;-62
2023/06/28 06:49:23;;;;;;;0.60;0.60;;;;;;;19.36;58.17;99586.72;5055630;28;20407;-63
2023/06/28 06:51:53;;;;;;;1.13;0.82;;;;;;;19.52;57.24;99582.66;5053423;28;20037;-64
2023/06/28 06:54:24;;;;;;;0.85;0.85;;;;;;;19.75;57.37;99584.31;5035285;28;20041;-63
2023/06/28 06:56:53;;;;;;;0.40;0.40;;;;;;;20.04;57.47;99577.09;5035288;28;20143;-63
2023/06/28 06:59:23;;;;;;;0.40;0.40;;;;;;;20.28;56.53;99580.44;5035198;28;20050;-63
2023/06/28 07:01:54;;;;;;;0.52;0.52;;;;;;;20.41;55.75;99580.78;5036551;28;20045;-63
2023/06/28 07:04:23;;;;;;;0.50;0.50;;;;;;;20.42;55.25;99579.88;5055268;28;20487;-62
2023/06/28 07:06:52;;;;;;;0.40;0.40;;;;;;;20.49;55.43;99578.72;5054940;28;20052;-63
2023/06/28 07:09:21;;;;;;;0.60;0.60;;;;;;;20.58;55.44;99578.31;5054744;28;20051;-63
2023/06/28 07:11:51;;;;;;;0.50;0.50;;;;;;;20.63;55.27;99573.78;5053432;28;20041;-62
2023/06/28 07:14:20;;;;;;;0.55;0.55;;;;;;;20.66;54.47;99571.03;5054788;28;20041;-62
2023/06/28 07:16:49;;;;;;;0.40;0.40;;;;;;;20.66;53.66;99571.03;5054691;28;20041;-62
2023/06/28 07:19:17;;;;;;;0.20;0.20;;;;;;;20.72;53.09;99575.97;5054678;28;20074;-62
2023/06/28 07:21:46;;;;;;;0.47;0.47;;;;;;;20.90;53.38;99574.31;5053494;28;20029;-63
2023/06/28 07:24:15;;;;;;;0.50;0.50;;;;;;;21.00;52.96;99575.56;5051828;28;20047;-62
2023/06/28 07:26:44;;;;;;;0.60;0.60;;;;;;;21.06;51.98;99575.34;5054402;28;20562;-62
2023/06/28 07:29:14;;;;;;;0.55;0.55;;;;;;;21.16;51.90;99567.06;5043348;28;20132;-62
2023/06/28 07:31:43;;;;;;;0.50;0.50;;;;;;;21.34;51.38;99573.16;5036684;28;20541;-63
2023/06/28 07:34:14;;;;;;;0.63;0.50;;;;;;;21.30;50.30;99569.03;5053206;28;20049;-62
2023/06/28 07:36:43;;;;;;;0.40;0.40;;;;;;;21.26;50.91;99568.31;5053503;28;20056;-63
2023/06/28 07:39:12;;;;;;;0.73;0.70;;;;;;;21.31;51.06;99568.09;5054197;28;20043;-62
2023/06/28 07:41:41;;;;;;;0.57;0.57;;;;;;;21.44;50.79;99570.97;5054288;28;20033;-63
2023/06/28 07:44:10;;;;;;;0.43;0.43;;;;;;;21.67;51.05;99568.13;5044690;28;20042;-63
2023/06/28 07:46:40;;;;;;;0.63;0.57;;;;;;;21.88;51.24;99567.16;5033264;28;20052;-62
2023/06/28 07:49:09;;;;;;;0.35;0.35;;;;;;;22.02;50.75;99569.94;5034129;28;20443;-62
2023/06/28 07:51:37;;;;;;;0.50;0.50;;;;;;;21.76;50.05;99565.13;5034160;28;20381;-63
2023/06/28 07:54:06;;;;;;;0.63;0.63;;;;;;;21.69;49.39;99563.72;5033031;28;20053;-63
2023/06/28 07:56:44;;;;;;;0.60;0.60;;;;;;;21.67;49.13;99563.78;5034435;28;20069;-63
2023/06/28 07:59:13;;;;;;;0.60;0.60;;;;;;;21.84;49.41;99570.78;5034217;28;20045;-63
2023/06/28 08:01:43;;;;;;;0.50;0.50;;;;;;;22.07;50.05;99562.75;5033770;28;20041;-63
2023/06/28 08:04:15;;;;;;;0.95;0.55;;;;;;;21.88;49.30;99556.75;5050712;28;20502;-62
2023/06/28 08:06:44;;;;;;;0.40;0.40;;;;;;;21.99;49.83;99559.66;5053846;28;20053;-62
2023/06/28 08:09:14;;;;;;;0.50;0.50;;;;;;;22.17;49.55;99548.34;5054138;28;20407;-63
2023/06/28 08:11:43;;;;;;;0.50;0.50;;;;;;;22.14;50.05;99550.28;5053773;28;20045;-62
2023/06/28 08:14:11;;;;;;;0.40;0.40;;;;;;;22.16;50.19;99546.69;5038058;28;20476;-63
2023/06/28 08:16:40;;;;;;;0.73;0.60;;;;;;;22.26;50.61;99547.91;5053936;28;20045;-63
2023/06/28 08:19:13;;;;;;;0.93;0.80;;;;;;;21.88;50.00;99546.38;5053873;28;20084;-63
2023/06/28 08:21:42;;;;;;;0.63;0.55;;;;;;;21.73;50.22;99544.47;5042901;28;20140;-62
2023/06/28 08:24:11;;;;;;;0.60;0.60;;;;;;;22.04;51.55;99542.09;5033593;28;20139;-63
2023/06/28 08:26:40;;;;;;;0.57;0.57;;;;;;;22.17;50.30;99544.94;5033368;28;20041;-63
2023/06/28 08:29:11;;;;;;;0.50;0.50;;;;;;;21.89;49.51;99538.47;5033555;28;20046;-62
2023/06/28 08:31:40;;;;;;;0.50;0.50;;;;;;;21.81;50.15;99537.97;5032870;28;20545;-62
2023/06/28 08:34:10;;;;;;;0.40;0.40;;;;;;;21.89;50.05;99542.84;5033096;28;20045;-62
2023/06/28 08:36:39;;;;;;;0.40;0.40;;;;;;;22.32;50.54;99531.97;5033802;28;20049;-62
2023/06/28 08:39:08;;;;;;;0.60;0.60;;;;;;;22.70;49.06;99531.81;5033462;28;20050;-62
2023/06/28 08:41:38;;;;;;;0.93;0.85;;;;;;;23.04;47.76;99523.88;5032594;28;20038;-63
2023/06/28 08:44:13;;;;;;;0.40;0.40;;;;;;;23.11;46.90;99525.22;5033567;28;20049;-62
2023/06/28 08:46:45;;;;;;;1.08;0.75;;;;;;;23.05;46.97;99518.59;5033411;28;20073;-62
2023/06/28 08:49:17;;;;;;;0.40;0.40;;;;;;;22.84;46.60;99530.16;5033543;28;20041;-63
2023/06/28 08:51:46;;;;;;;0.50;0.50;;;;;;;22.62;47.49;99530.44;5032328;28;20115;-62
2023/06/28 08:54:15;;;;;;;0.30;0.30;;;;;;;22.38;47.72;99526.47;5032834;28;20103;-62
2023/06/28 08:56:45;;;;;;;0.68;0.68;;;;;;;22.06;47.88;99523.81;5033487;28;20124;-63
2023/06/28 08:59:27;;;;;;;1.02;0.93;;;;;;;21.97;48.55;99532.91;5037858;28;20044;-63
2023/06/28 09:01:58;;;;;;;0.63;0.63;;;;;;;21.88;49.14;99530.78;5053148;28;20052;-62
2023/06/28 09:04:30;;;;;;;0.40;0.40;;;;;;;21.81;49.63;99534.56;5046855;28;20431;-62
2023/06/28 09:07:00;;;;;;;0.73;0.70;;;;;;;21.90;49.41;99523.75;5031250;28;20051;-64
2023/06/28 09:09:31;;;;;;;0.40;0.40;;;;;;;22.36;48.95;99528.28;5033293;28;20042;-62
2023/06/28 09:12:00;;;;;;;0.60;0.60;;;;;;;22.62;47.56;99520.03;5041801;28;20053;-63
2023/06/28 09:14:29;;;;;;;0.50;0.50;;;;;;;22.75;47.13;99509.00;5049529;28;20044;-62
2023/06/28 09:16:59;;;;;;;0.40;0.40;;;;;;;22.78;47.22;99503.59;5053629;28;20045;-62
2023/06/28 09:19:29;;;;;;;6.43;1.30;;;;;;;22.69;46.68;99499.72;5042993;28;20042;-62
2023/06/28 09:22:03;;;;;;;0.85;0.70;;;;;;;22.96;46.90;99502.63;5029906;28;20052;-62
2023/06/28 09:24:35;;;;;;;0.40;0.40;;;;;;;23.11;46.81;99506.97;5033438;28;20041;-62
2023/06/28 09:27:05;;;;;;;0.40;0.40;;;;;;;23.20;47.05;99503.91;5032515;28;20103;-63
2023/06/28 09:29:35;;;;;;;0.88;0.88;;;;;;;23.26;47.25;99504.41;5046831;28;20041;-62
2023/06/28 09:32:05;;;;;;;0.45;0.45;;;;;;;23.28;47.96;99512.09;5035474;28;20048;-62
2023/06/28 09:34:37;;;;;;;0.40;0.40;;;;;;;23.09;48.04;99508.84;5032875;28;20040;-64
2023/06/28 09:37:07;;;;;;;0.88;0.60;;;;;;;22.80;48.22;99502.59;5031929;28;20522;-62
2023/06/28 09:39:37;;;;;;;0.43;0.43;;;;;;;22.61;48.17;99510.53;5031096;28;20057;-63
2023/06/28 09:42:07;;;;;;;0.45;0.45;;;;;;;22.33;48.21;99507.66;5033323;28;20451;-62
2023/06/28 09:44:36;;;;;;;0.40;0.40;;;;;;;22.47;48.73;99505.19;5032955;28;20041;-63
2023/06/28 09:47:06;;;;;;;0.77;0.70;;;;;;;22.85;47.71;99494.53;5034803;28;20081;-63
2023/06/28 09:49:36;;;;;;;0.50;0.50;;;;;;;23.18;47.24;99487.50;5045120;28;20067;-62
2023/06/28 09:52:08;;;;;;;0.50;0.50;;;;;;;23.55;46.59;99487.16;5056699;28;20079;-63
2023/06/28 09:54:44;;;;;;;0.55;0.55;;;;;;;23.77;45.35;99487.63;5056850;28;20372;-63
2023/06/28 09:57:14;;;;;;;0.40;0.40;;;;;;;24.07;45.21;99486.81;5049723;28;20033;-62
2023/06/28 09:59:44;;;;;;;0.57;0.57;;;;;;;24.49;45.50;99471.19;5036504;28;20049;-63
2023/06/28 10:02:17;;;;;;;0.52;0.52;;;;;;;24.37;44.62;99475.38;5049055;28;20492;-63
2023/06/28 10:04:48;;;;;;;0.60;0.60;;;;;;;24.18;44.60;99476.56;5053298;28;20045;-62
2023/06/28 10:07:19;;;;;;;0.55;0.55;;;;;;;24.13;44.85;99469.03;5036332;28;20045;-63
2023/06/28 10:09:49;;;;;;;1.17;0.60;;;;;;;24.06;44.83;99461.59;5036017;28;20064;-63
2023/06/28 10:12:20;;;;;;;0.60;0.60;;;;;;;23.83;45.01;99461.19;5036363;28;20180;-63
2023/06/28 10:14:55;;;;;;;0.40;0.40;;;;;;;23.58;44.91;99466.16;5036009;28;20050;-63
2023/06/28 10:17:31;;;;;;;0.40;0.40;;;;;;;23.36;44.65;99454.41;5034938;28;20132;-62
2023/06/28 10:20:04;;;;;;;0.40;0.40;;;;;;;23.16;45.21;99451.13;5035989;28;20045;-62
2023/06/28 10:22:35;;;;;;;0.50;0.50;;;;;;;23.11;46.05;99447.94;5036163;28;20144;-62
2023/06/28 10:25:04;;;;;;;0.40;0.40;;;;;;;23.58;46.56;99452.28;5035889;28;20492;-63
2023/06/28 10:27:34;;;;;;;0.60;0.60;;;;;;;24.00;45.66;99442.78;5035147;28;20068;-62
2023/06/28 10:30:04;;;;;;;0.50;0.50;;;;;;;24.21;45.43;99458.94;5038294;28;20103;-63
2023/06/28 10:32:35;;;;;;;0.82;0.82;;;;;;;24.02;44.90;99457.50;5032163;28;20049;-63
2023/06/28 10:35:08;;;;;;;0.40;0.40;;;;;;;23.62;45.65;99459.81;5039083;28;20514;-63
2023/06/28 10:37:38;;;;;;;0.50;0.50;;;;;;;23.35;46.11;99458.78;5038298;28;20056;-63
2023/06/28 10:40:10;;;;;;;1.05;0.95;;;;;;;23.22;46.49;99462.97;5055465;28;20040;-63
2023/06/28 10:42:40;;;;;;;0.50;0.50;;;;;;;23.38;46.86;99463.81;5039746;28;20057;-63
2023/06/28 10:45:09;;;;;;;0.32;0.32;;;;;;;23.73;46.77;99444.41;5035475;28;20062;-62
2023/06/28 10:47:51;;;;;;;;;;;;;;;23.64;45.81;99434.50;5035805;28;20045;-63
2023/06/28 10:50:23;;;;;;;0.50;0.50;;;;;;;23.44;45.50;99427.03;5034776;28;19979;-66
2023/06/28 10:52:55;;;;;;;0.70;0.70;;;;;;;23.24;45.16;99440.28;5015580;28;20408;-64
2023/06/28 10:55:30;;;;;;;0.40;0.40;;;;;;;22.58;44.30;99447.38;5015465;28;20076;-62
2023/06/28 10:58:06;;;;;;;0.40;0.40;;;;;;;22.16;45.85;99468.69;5033380;28;20519;-63
2023/06/28 11:00:43;;;;;;;2.72;1.27;;;;;;;21.68;49.65;99474.56;5032422;28;20049;-62
2023/06/28 11:03:14;;;;;;;4.38;1.17;;;;;;;21.33;53.53;99491.00;5048725;28;20131;-62
2023/06/28 11:05:55;;;;;;;6.13;2.25;;;;;;;20.75;57.68;99505.78;5053331;28;20506;-62
2023/06/28 11:08:38;;;;;;;0.40;0.40;;;;;;;20.33;60.92;99516.28;5035580;28;20045;-62
2023/06/28 11:11:09;;;;;;;3.45;1.10;;;;;;;20.14;62.65;99522.28;5034899;28;20136;-61
2023/06/28 11:13:48;;;;;;;0.40;0.40;;;;;;;19.95;64.53;99529.97;5034880;28;20091;-61
2023/06/28 11:16:20;;;;;;;0.60;0.60;;;;;;;19.80;66.01;99536.63;5034903;28;20041;-60
2023/06/28 11:18:50;;;;;;;0.40;0.40;;;;;;;19.64;67.93;99560.59;5037003;28;20127;-61
2023/06/28 11:21:24;;;;;;;0.45;0.45;;;;;;;19.34;69.16;99578.13;5048800;28;20048;-60
2023/06/28 11:23:55;;;;;;;0.90;0.82;;;;;;;19.15;70.22;99597.81;5055165;28;20383;-60
2023/06/28 11:26:35;;;;;;;0.93;0.90;;;;;;;18.94;71.08;99583.09;5054311;28;20079;-60
2023/06/28 11:29:16;;;;;;;;;;;;;;;18.74;71.11;99586.38;5039886;28;20129;-60
2023/06/28 11:31:48;;;;;;;0.60;0.60;;;;;;;18.58;71.31;99573.16;5040164;28;20023;-61
2023/06/28 11:34:18;;;;;;;14.18;1.02;;;;;;;18.55;71.72;99569.81;5038219;28;20061;-60
2023/06/28 11:36:51;;;;;;;0.50;0.50;;;;;;;18.48;71.74;99579.53;5054591;28;20108;-60
2023/06/28 11:39:23;;;;;;;1.05;0.98;;;;;;;18.45;71.38;99564.09;5048222;28;20048;-60
2023/06/28 11:41:52;;;;;;;1.27;1.08;;;;;;;18.47;71.77;99540.84;5046520;28;20041;-60
2023/06/28 11:44:21;;;;;;;0.73;0.60;;;;;;;18.55;72.35;99539.66;5054664;28;20091;-60
2023/06/28 11:46:51;;;;;;;0.40;0.40;;;;;;;18.46;72.50;99545.16;5054188;28;20566;-60
2023/06/28 11:49:20;;;;;;;0.60;0.60;;;;;;;18.47;72.95;99543.41;5048437;28;20037;-60